KMSV/MSV METAR and TAF weather

Enter ICAO airport designator
Station Type Date Time Source
KMSV METAR 2020/11/28 19:56 UTC NOAA

KMSV 281956Z AUTO 29008KT 10SM FEW039 BKN050 BKN060 04/02 A2998 RMK AO2 RAB1857E19 SLP161 P0000 T00440017


Station Type Date Time Source
KMSV Decoded METAR 2020/11/28 19:56 UTC NOAA

Monticello, Sullivan County International Airport, NY, United States (KMSV) 41-42N 074-48W
Nov 28, 2020 - 02:56 PM EST / 2020.11.28 1956 UTC
Wind: from the WNW (290 degrees) at 9 MPH (8 KT):0
Visibility: 10 mile(s):0
Sky conditions: mostly cloudy
Precipitation last hour: A trace
Temperature: 39.9 F (4.4 C)
Dew Point: 35.1 F (1.7 C)
Relative Humidity: 82%
Pressure (altimeter): 29.98 in. Hg (1015 hPa)
ob: KMSV 281956Z AUTO 29008KT 10SM FEW039 BKN050 BKN060 04/02 A2998 RMK AO2 RAB1857E19 SLP161 P0000 T00440017
cycle: 20

Station Type Date Time Source
KMSV TAF UTC NOAA

Error!

Example: see airport list